sensor_id;sensor_type;location;lat;lon;timestamp;pressure;altitude;pressure_sealevel;temperature;humidity
53932;BME280;39844;52.496;13.482;2022-08-19T00:00:39;100699.91;;;21.65;95.86
53932;BME280;39844;52.496;13.482;2022-08-19T00:03:05;100706.13;;;21.66;96.37
53932;BME280;39844;52.496;13.482;2022-08-19T00:05:32;100706.13;;;21.66;96.30
53932;BME280;39844;52.496;13.482;2022-08-19T00:07:57;100701.56;;;21.68;96.14
53932;BME280;39844;52.496;13.482;2022-08-19T00:10:23;100703.47;;;21.66;96.39
53932;BME280;39844;52.496;13.482;2022-08-19T00:12:49;100715.81;;;21.68;96.85
53932;BME280;39844;52.496;13.482;2022-08-19T00:15:19;100726.50;;;21.68;96.72
53932;BME280;39844;52.496;13.482;2022-08-19T00:17:45;100737.00;;;21.71;97.46
53932;BME280;39844;52.496;13.482;2022-08-19T00:20:14;100728.06;;;21.72;97.86
53932;BME280;39844;52.496;13.482;2022-08-19T00:22:43;100723.50;;;21.74;98.88
53932;BME280;39844;52.496;13.482;2022-08-19T00:25:08;100722.63;;;21.74;98.52
53932;BME280;39844;52.496;13.482;2022-08-19T00:27:34;100720.03;;;21.72;97.72
53932;BME280;39844;52.496;13.482;2022-08-19T00:30:00;100711.16;;;21.72;97.67
53932;BME280;39844;52.496;13.482;2022-08-19T00:32:27;100711.16;;;21.72;97.89
53932;BME280;39844;52.496;13.482;2022-08-19T00:34:52;100704.88;;;21.73;98.64
53932;BME280;39844;52.496;13.482;2022-08-19T00:37:23;100700.47;;;21.72;99.34
53932;BME280;39844;52.496;13.482;2022-08-19T00:39:50;100700.59;;;21.69;99.28
53932;BME280;39844;52.496;13.482;2022-08-19T00:42:17;100701.56;;;21.68;100.00
53932;BME280;39844;52.496;13.482;2022-08-19T00:44:42;100685.69;;;21.65;100.00
53932;BME280;39844;52.496;13.482;2022-08-19T00:47:08;100693.94;;;21.60;100.00
53932;BME280;39844;52.496;13.482;2022-08-19T00:49:34;100700.44;;;21.55;100.00
53932;BME280;39844;52.496;13.482;2022-08-19T00:52:11;100690.03;;;21.49;100.00
53932;BME280;39844;52.496;13.482;2022-08-19T00:54:39;100694.59;;;21.47;100.00
53932;BME280;39844;52.496;13.482;2022-08-19T00:57:06;100676.06;;;21.43;100.00
53932;BME280;39844;52.496;13.482;2022-08-19T00:59:34;100684.25;;;21.40;100.00
53932;BME280;39844;52.496;13.482;2022-08-19T01:02:01;100693.19;;;21.39;100.00
53932;BME280;39844;52.496;13.482;2022-08-19T01:04:26;100706.53;;;21.39;100.00
53932;BME280;39844;52.496;13.482;2022-08-19T01:06:52;100704.88;;;21.37;100.00
53932;BME280;39844;52.496;13.482;2022-08-19T01:09:17;100701.34;;;21.36;100.00
53932;BME280;39844;52.496;13.482;2022-08-19T01:11:43;100706.69;;;21.36;100.00
53932;BME280;39844;52.496;13.482;2022-08-19T01:14:10;100713.91;;;21.34;100.00
53932;BME280;39844;52.496;13.482;2022-08-19T01:16:35;100731.66;;;21.35;100.00
53932;BME280;39844;52.496;13.482;2022-08-19T01:19:03;100717.34;;;21.36;100.00
53932;BME280;39844;52.496;13.482;2022-08-19T01:21:44;100721.69;;;21.39;100.00
53932;BME280;39844;52.496;13.482;2022-08-19T01:24:11;100733.38;;;21.36;100.00
53932;BME280;39844;52.496;13.482;2022-08-19T01:26:42;100732.75;;;21.31;100.00
53932;BME280;39844;52.496;13.482;2022-08-19T01:29:09;100724.88;;;21.28;100.00
53932;BME280;39844;52.496;13.482;2022-08-19T01:31:35;100728.50;;;21.27;100.00
53932;BME280;39844;52.496;13.482;2022-08-19T01:34:02;100726.75;;;21.26;100.00
53932;BME280;39844;52.496;13.482;2022-08-19T01:36:34;100718.97;;;21.22;100.00
53932;BME280;39844;52.496;13.482;2022-08-19T01:39:03;100729.88;;;21.17;100.00
53932;BME280;39844;52.496;13.482;2022-08-19T01:41:28;100719.38;;;21.13;100.00
53932;BME280;39844;52.496;13.482;2022-08-19T01:43:54;100712.38;;;21.10;100.00
53932;BME280;39844;52.496;13.482;2022-08-19T01:46:21;100700.94;;;21.08;100.00
53932;BME280;39844;52.496;13.482;2022-08-19T01:48:46;100693.97;;;21.04;100.00
53932;BME280;39844;52.496;13.482;2022-08-19T01:51:12;100690.66;;;20.99;100.00
53932;BME280;39844;52.496;13.482;2022-08-19T01:53:38;100704.94;;;20.98;100.00
53932;BME280;39844;52.496;13.482;2022-08-19T01:56:05;100677.53;;;20.95;100.00
53932;BME280;39844;52.496;13.482;2022-08-19T01:58:34;100646.66;;;20.89;100.00
53932;BME280;39844;52.496;13.482;2022-08-19T02:01:03;100636.28;;;20.83;100.00
53932;BME280;39844;52.496;13.482;2022-08-19T02:03:29;100631.94;;;20.80;100.00
53932;BME280;39844;52.496;13.482;2022-08-19T02:05:59;100632.31;;;20.73;100.00
53932;BME280;39844;52.496;13.482;2022-08-19T02:08:26;100645.44;;;20.77;100.00
53932;BME280;39844;52.496;13.482;2022-08-19T02:10:52;100650.84;;;20.76;100.00
53932;BME280;39844;52.496;13.482;2022-08-19T02:13:17;100635.56;;;20.79;100.00
53932;BME280;39844;52.496;13.482;2022-08-19T02:15:43;100625.75;;;20.80;100.00
53932;BME280;39844;52.496;13.482;2022-08-19T02:18:08;100608.81;;;20.81;100.00
53932;BME280;39844;52.496;13.482;2022-08-19T02:20:34;100609.81;;;20.78;100.00
53932;BME280;39844;52.496;13.482;2022-08-19T02:23:00;100595.91;;;20.72;100.00
53932;BME280;39844;52.496;13.482;2022-08-19T02:25:26;100604.84;;;20.71;100.00
53932;BME280;39844;52.496;13.482;2022-08-19T02:27:52;100609.41;;;20.69;100.00
53932;BME280;39844;52.496;13.482;2022-08-19T02:30:19;100604.06;;;20.69;100.00
53932;BME280;39844;52.496;13.482;2022-08-19T02:32:45;100610.19;;;20.71;100.00
53932;BME280;39844;52.496;13.482;2022-08-19T02:35:11;100610.97;;;20.73;100.00
53932;BME280;39844;52.496;13.482;2022-08-19T02:37:37;100621.59;;;20.74;100.00
53932;BME280;39844;52.496;13.482;2022-08-19T02:40:21;100617.97;;;20.75;100.00
53932;BME280;39844;52.496;13.482;2022-08-19T02:42:46;100618.97;;;20.73;100.00
53932;BME280;39844;52.496;13.482;2022-08-19T02:45:13;100630.50;;;20.73;100.00
53932;BME280;39844;52.496;13.482;2022-08-19T02:47:39;100620.72;;;20.74;100.00
53932;BME280;39844;52.496;13.482;2022-08-19T02:50:05;100627.84;;;20.73;100.00
53932;BME280;39844;52.496;13.482;2022-08-19T02:52:33;100618.97;;;20.73;100.00
53932;BME280;39844;52.496;13.482;2022-08-19T02:54:58;100619.84;;;20.73;100.00
53932;BME280;39844;52.496;13.482;2022-08-19T02:57:25;100626.91;;;20.74;100.00
53932;BME280;39844;52.496;13.482;2022-08-19T02:59:51;100632.25;;;20.74;100.00
53932;BME280;39844;52.496;13.482;2022-08-19T03:02:17;100627.75;;;20.75;100.00
53932;BME280;39844;52.496;13.482;2022-08-19T03:04:42;100627.75;;;20.75;100.00
53932;BME280;39844;52.496;13.482;2022-08-19T03:07:08;100627.75;;;20.75;100.00
53932;BME280;39844;52.496;13.482;2022-08-19T03:09:37;100630.50;;;20.73;100.00
53932;BME280;39844;52.496;13.482;2022-08-19T03:12:03;100626.91;;;20.74;100.00
53932;BME280;39844;52.496;13.482;2022-08-19T03:14:33;100622.59;;;20.72;100.00
53932;BME280;39844;52.496;13.482;2022-08-19T03:16:59;100620.84;;;20.71;100.00
53932;BME280;39844;52.496;13.482;2022-08-19T03:19:24;100622.72;;;20.69;100.00
53932;BME280;39844;52.496;13.482;2022-08-19T03:21:51;100614.72;;;20.69;100.00
53932;BME280;39844;52.496;13.482;2022-08-19T03:24:18;100605.94;;;20.67;100.00
53932;BME280;39844;52.496;13.482;2022-08-19T03:26:49;100594.44;;;20.65;100.00
53932;BME280;39844;52.496;13.482;2022-08-19T03:29:16;100602.59;;;20.62;100.00
53932;BME280;39844;52.496;13.482;2022-08-19T03:31:42;100606.28;;;20.59;100.00
53932;BME280;39844;52.496;13.482;2022-08-19T03:34:13;100611.69;;;20.58;100.00
53932;BME280;39844;52.496;13.482;2022-08-19T03:36:38;100615.28;;;20.57;100.00
53932;BME280;39844;52.496;13.482;2022-08-19T03:39:04;100601.16;;;20.55;100.00
53932;BME280;39844;52.496;13.482;2022-08-19T03:41:32;100614.56;;;20.53;100.00
53932;BME280;39844;52.496;13.482;2022-08-19T03:43:58;100613.72;;;20.53;100.00
53932;BME280;39844;52.496;13.482;2022-08-19T03:46:29;100611.03;;;20.53;100.00
53932;BME280;39844;52.496;13.482;2022-08-19T03:48:56;100617.28;;;20.52;100.00
53932;BME280;39844;52.496;13.482;2022-08-19T03:51:25;100629.84;;;20.50;100.00
53932;BME280;39844;52.496;13.482;2022-08-19T03:53:52;100628.91;;;20.51;100.00
53932;BME280;39844;52.496;13.482;2022-08-19T03:56:18;100621.84;;;20.50;100.00
53932;BME280;39844;52.496;13.482;2022-08-19T03:58:44;100610.31;;;20.49;100.00
53932;BME280;39844;52.496;13.482;2022-08-19T04:01:21;100604.13;;;20.49;100.00
53932;BME280;39844;52.496;13.482;2022-08-19T04:03:47;100613.06;;;20.48;100.00
53932;BME280;39844;52.496;13.482;2022-08-19T04:06:17;100613.06;;;20.48;100.00
53932;BME280;39844;52.496;13.482;2022-08-19T04:08:45;100608.59;;;20.48;100.00
53932;BME280;39844;52.496;13.482;2022-08-19T04:11:16;100611.19;;;20.50;100.00
53932;BME280;39844;52.496;13.482;2022-08-19T04:13:42;100621.84;;;20.50;100.00
53932;BME280;39844;52.496;13.482;2022-08-19T04:16:09;100637.78;;;20.51;100.00
53932;BME280;39844;52.496;13.482;2022-08-19T04:18:37;100639.59;;;20.51;100.00
53932;BME280;39844;52.496;13.482;2022-08-19T04:21:03;100640.38;;;20.53;100.00
53932;BME280;39844;52.496;13.482;2022-08-19T04:23:29;100632.28;;;20.54;100.00
53932;BME280;39844;52.496;13.482;2022-08-19T04:25:55;100630.50;;;20.55;100.00
53932;BME280;39844;52.496;13.482;2022-08-19T04:28:21;100633.09;;;20.56;100.00
53932;BME280;39844;52.496;13.482;2022-08-19T04:30:49;100631.28;;;20.57;100.00
53932;BME280;39844;52.496;13.482;2022-08-19T04:33:17;100628.56;;;20.58;100.00
53932;BME280;39844;52.496;13.482;2022-08-19T04:35:45;100640.91;;;20.61;100.00
53932;BME280;39844;52.496;13.482;2022-08-19T04:38:12;100632.91;;;20.61;100.00
53932;BME280;39844;52.496;13.482;2022-08-19T04:40:45;100631.94;;;20.62;100.00
53932;BME280;39844;52.496;13.482;2022-08-19T04:43:30;100632.81;;;20.62;100.00
53932;BME280;39844;52.496;13.482;2022-08-19T04:45:57;100629.22;;;20.63;100.00
53932;BME280;39844;52.496;13.482;2022-08-19T04:48:23;100632.63;;;20.67;100.00
53932;BME280;39844;52.496;13.482;2022-08-19T04:50:56;100634.41;;;20.66;100.00
53932;BME280;39844;52.496;13.482;2022-08-19T04:53:32;100630.75;;;20.69;100.00
53932;BME280;39844;52.496;13.482;2022-08-19T04:55:59;100627.94;;;20.72;100.00
53932;BME280;39844;52.496;13.482;2022-08-19T04:58:28;100627.75;;;20.75;100.00
53932;BME280;39844;52.496;13.482;2022-08-19T05:00:54;100620.56;;;20.77;100.00
53932;BME280;39844;52.496;13.482;2022-08-19T05:03:19;100614.22;;;20.79;100.00
53932;BME280;39844;52.496;13.482;2022-08-19T05:05:46;100623.88;;;20.82;100.00
53932;BME280;39844;52.496;13.482;2022-08-19T05:08:19;100614.78;;;20.86;100.00
53932;BME280;39844;52.496;13.482;2022-08-19T05:10:47;100614.66;;;20.89;100.00
53932;BME280;39844;52.496;13.482;2022-08-19T05:13:13;100616.34;;;20.90;100.00
53932;BME280;39844;52.496;13.482;2022-08-19T05:15:39;100617.22;;;20.91;100.00
53932;BME280;39844;52.496;13.482;2022-08-19T05:18:05;100615.44;;;20.91;100.00
53932;BME280;39844;52.496;13.482;2022-08-19T05:20:48;100613.50;;;20.95;100.00
53932;BME280;39844;52.496;13.482;2022-08-19T05:23:32;100610.59;;;20.99;100.00
53932;BME280;39844;52.496;13.482;2022-08-19T05:25:58;100601.63;;;21.00;100.00
53932;BME280;39844;52.496;13.482;2022-08-19T05:28:23;100604.16;;;21.03;100.00
53932;BME280;39844;52.496;13.482;2022-08-19T05:30:48;100598.63;;;21.08;100.00
53932;BME280;39844;52.496;13.482;2022-08-19T05:33:16;100597.44;;;21.13;100.00
53932;BME280;39844;52.496;13.482;2022-08-19T05:35:42;100592.91;;;21.15;100.00
53932;BME280;39844;52.496;13.482;2022-08-19T05:38:07;100594.72;;;21.15;100.00
53932;BME280;39844;52.496;13.482;2022-08-19T05:40:37;100595.41;;;21.18;100.00
53932;BME280;39844;52.496;13.482;2022-08-19T05:43:05;100595.28;;;21.21;100.00
53932;BME280;39844;52.496;13.482;2022-08-19T05:45:32;100607.47;;;21.27;100.00
53932;BME280;39844;52.496;13.482;2022-08-19T05:47:58;100612.72;;;21.28;100.00
53932;BME280;39844;52.496;13.482;2022-08-19T05:50:25;100622.38;;;21.31;100.00
53932;BME280;39844;52.496;13.482;2022-08-19T05:52:52;100624.84;;;21.35;100.00
53932;BME280;39844;52.496;13.482;2022-08-19T05:55:17;100607.56;;;21.42;100.00
53932;BME280;39844;52.496;13.482;2022-08-19T05:57:45;100607.41;;;21.46;100.00
53932;BME280;39844;52.496;13.482;2022-08-19T06:00:11;100605.53;;;21.48;100.00
53932;BME280;39844;52.496;13.482;2022-08-19T06:02:36;100608.09;;;21.49;99.98
53932;BME280;39844;52.496;13.482;2022-08-19T06:05:04;100617.72;;;21.53;100.00
53932;BME280;39844;52.496;13.482;2022-08-19T06:07:31;100614.03;;;21.56;100.00
53932;BME280;39844;52.496;13.482;2022-08-19T06:09:57;100623.59;;;21.60;99.81
53932;BME280;39844;52.496;13.482;2022-08-19T06:12:22;100633.13;;;21.65;100.00
53932;BME280;39844;52.496;13.482;2022-08-19T06:14:54;100640.16;;;21.66;99.62
53932;BME280;39844;52.496;13.482;2022-08-19T06:17:20;100637.44;;;21.68;98.59
53932;BME280;39844;52.496;13.482;2022-08-19T06:19:47;100632.00;;;21.69;98.33
53932;BME280;39844;52.496;13.482;2022-08-19T06:22:14;100629.28;;;21.71;97.91
53932;BME280;39844;52.496;13.482;2022-08-19T06:24:40;100617.63;;;21.72;97.67
53932;BME280;39844;52.496;13.482;2022-08-19T06:27:05;100621.88;;;21.76;99.03
53932;BME280;39844;52.496;13.482;2022-08-19T06:29:31;100622.56;;;21.79;97.37
53932;BME280;39844;52.496;13.482;2022-08-19T06:31:59;100624.06;;;21.85;98.61
53932;BME280;39844;52.496;13.482;2022-08-19T06:34:25;100623.78;;;21.91;98.14
53932;BME280;39844;52.496;13.482;2022-08-19T06:36:53;100614.66;;;21.95;97.56
53932;BME280;39844;52.496;13.482;2022-08-19T06:39:23;100612.69;;;21.98;96.86
53932;BME280;39844;52.496;13.482;2022-08-19T06:41:51;100618.97;;;21.97;95.56
53932;BME280;39844;52.496;13.482;2022-08-19T06:44:19;100633.06;;;22.01;95.97
53932;BME280;39844;52.496;13.482;2022-08-19T06:46:45;100635.56;;;22.04;96.26
53932;BME280;39844;52.496;13.482;2022-08-19T06:49:10;100645.31;;;22.05;94.02
53932;BME280;39844;52.496;13.482;2022-08-19T06:51:40;100646.09;;;22.07;94.89
53932;BME280;39844;52.496;13.482;2022-08-19T06:54:06;100649.47;;;22.11;94.95
53932;BME280;39844;52.496;13.482;2022-08-19T06:56:32;100654.72;;;22.12;94.08
53932;BME280;39844;52.496;13.482;2022-08-19T06:59:02;100653.69;;;22.15;94.32
53932;BME280;39844;52.496;13.482;2022-08-19T07:01:28;100658.91;;;22.18;93.86
53932;BME280;39844;52.496;13.482;2022-08-19T07:03:53;100661.50;;;22.19;93.86
53932;BME280;39844;52.496;13.482;2022-08-19T07:06:19;100671.81;;;22.27;94.83
53932;BME280;39844;52.496;13.482;2022-08-19T07:08:46;100679.72;;;22.28;93.30
53932;BME280;39844;52.496;13.482;2022-08-19T07:11:14;100675.25;;;22.29;92.65
53932;BME280;39844;52.496;13.482;2022-08-19T07:13:41;100668.78;;;22.33;93.76
53932;BME280;39844;52.496;13.482;2022-08-19T07:16:14;100661.47;;;22.36;93.66
53932;BME280;39844;52.496;13.482;2022-08-19T07:18:41;100657.59;;;22.42;93.01
53932;BME280;39844;52.496;13.482;2022-08-19T07:21:21;100657.19;;;22.49;94.13
53932;BME280;39844;52.496;13.482;2022-08-19T07:23:48;100657.03;;;22.52;92.77
53932;BME280;39844;52.496;13.482;2022-08-19T07:26:17;100657.81;;;22.54;91.93
53932;BME280;39844;52.496;13.482;2022-08-19T07:28:45;100658.41;;;22.59;92.80
53932;BME280;39844;52.496;13.482;2022-08-19T07:31:12;100651.03;;;22.64;92.98
53932;BME280;39844;52.496;13.482;2022-08-19T07:33:39;100656.22;;;22.68;91.78
53932;BME280;39844;52.496;13.482;2022-08-19T07:36:07;100674.97;;;22.68;90.40
53932;BME280;39844;52.496;13.482;2022-08-19T07:38:33;100681.25;;;22.67;91.01
53932;BME280;39844;52.496;13.482;2022-08-19T07:41:00;100679.97;;;22.74;92.09
53932;BME280;39844;52.496;13.482;2022-08-19T07:43:26;100681.44;;;22.79;93.49
53932;BME280;39844;52.496;13.482;2022-08-19T07:45:55;100679.47;;;22.83;92.72
53932;BME280;39844;52.496;13.482;2022-08-19T07:48:25;100698.03;;;22.86;92.51
53932;BME280;39844;52.496;13.482;2022-08-19T07:50:53;100697.25;;;22.84;91.03
53932;BME280;39844;52.496;13.482;2022-08-19T07:53:20;100692.84;;;22.83;90.31
53932;BME280;39844;52.496;13.482;2022-08-19T07:55:46;100694.56;;;22.84;90.21
53932;BME280;39844;52.496;13.482;2022-08-19T07:58:14;100693.53;;;22.86;91.29
53932;BME280;39844;52.496;13.482;2022-08-19T08:00:41;100701.25;;;22.92;91.40
53932;BME280;39844;52.496;13.482;2022-08-19T08:03:09;100707.31;;;22.96;90.46
53932;BME280;39844;52.496;13.482;2022-08-19T08:05:37;100703.50;;;23.00;91.15
53932;BME280;39844;52.496;13.482;2022-08-19T08:08:21;100701.44;;;23.05;91.49
53932;BME280;39844;52.496;13.482;2022-08-19T08:11:07;100702.03;;;23.10;90.76
53932;BME280;39844;52.496;13.482;2022-08-19T08:13:32;100709.81;;;23.14;89.82
53932;BME280;39844;52.496;13.482;2022-08-19T08:16:00;100718.38;;;23.21;89.86
53932;BME280;39844;52.496;13.482;2022-08-19T08:18:26;100728.38;;;23.17;88.01
53932;BME280;39844;52.496;13.482;2022-08-19T08:20:51;100729.59;;;23.12;87.75
53932;BME280;39844;52.496;13.482;2022-08-19T08:23:16;100718.72;;;23.15;89.61
53932;BME280;39844;52.496;13.482;2022-08-19T08:25:49;100728.50;;;23.16;88.88
53932;BME280;39844;52.496;13.482;2022-08-19T08:28:15;100726.00;;;23.28;90.34
53932;BME280;39844;52.496;13.482;2022-08-19T08:30:41;100724.75;;;23.34;88.56
53932;BME280;39844;52.496;13.482;2022-08-19T08:33:08;100718.75;;;23.46;88.00
53932;BME280;39844;52.496;13.482;2022-08-19T08:35:34;100722.34;;;23.61;87.88
53932;BME280;39844;52.496;13.482;2022-08-19T08:38:00;100725.44;;;23.84;87.02
53932;BME280;39844;52.496;13.482;2022-08-19T08:40:51;100731.59;;;24.01;85.15
53932;BME280;39844;52.496;13.482;2022-08-19T08:43:37;100726.41;;;24.13;83.65
53932;BME280;39844;52.496;13.482;2022-08-19T08:46:07;100728.03;;;24.16;81.42
53932;BME280;39844;52.496;13.482;2022-08-19T08:48:40;100729.97;;;24.14;81.61
53932;BME280;39844;52.496;13.482;2022-08-19T08:51:11;100730.25;;;24.23;81.50
53932;BME280;39844;52.496;13.482;2022-08-19T08:53:40;100725.88;;;24.22;81.13
53932;BME280;39844;52.496;13.482;2022-08-19T08:56:06;100729.69;;;24.18;79.89
53932;BME280;39844;52.496;13.482;2022-08-19T08:58:39;100729.69;;;24.18;80.50
53932;BME280;39844;52.496;13.482;2022-08-19T09:01:10;100729.03;;;24.15;78.92
53932;BME280;39844;52.496;13.482;2022-08-19T09:03:37;100733.50;;;24.14;80.82
53932;BME280;39844;52.496;13.482;2022-08-19T09:06:14;100735.91;;;24.19;80.35
53932;BME280;39844;52.496;13.482;2022-08-19T09:09:03;100731.25;;;24.22;78.64
53932;BME280;39844;52.496;13.482;2022-08-19T09:14:28;100731.38;;;24.35;80.04
53932;BME280;39844;52.496;13.482;2022-08-19T09:16:57;100720.44;;;24.38;78.98
53932;BME280;39844;52.496;13.482;2022-08-19T09:19:23;100717.56;;;24.41;80.40
53932;BME280;39844;52.496;13.482;2022-08-19T09:21:48;100729.91;;;24.43;79.98
53932;BME280;39844;52.496;13.482;2022-08-19T09:24:17;100723.31;;;24.49;79.58
53932;BME280;39844;52.496;13.482;2022-08-19T09:26:43;100711.63;;;24.50;78.25
53932;BME280;39844;52.496;13.482;2022-08-19T09:29:14;100718.72;;;24.51;77.35
53932;BME280;39844;52.496;13.482;2022-08-19T09:31:52;100714.69;;;24.44;77.72
53932;BME280;39844;52.496;13.482;2022-08-19T09:34:21;100719.88;;;24.47;77.58
53932;BME280;39844;52.496;13.482;2022-08-19T09:36:49;100716.72;;;24.55;77.60
53932;BME280;39844;52.496;13.482;2022-08-19T09:39:21;100725.94;;;24.50;77.46
53932;BME280;39844;52.496;13.482;2022-08-19T09:41:46;100717.09;;;24.48;77.41
53932;BME280;39844;52.496;13.482;2022-08-19T09:44:18;100720.91;;;24.44;76.78
53932;BME280;39844;52.496;13.482;2022-08-19T09:46:46;100735.09;;;24.46;76.62
53932;BME280;39844;52.496;13.482;2022-08-19T09:49:18;100716.91;;;24.51;77.21
53932;BME280;39844;52.496;13.482;2022-08-19T09:51:49;100715.66;;;24.57;76.45
53932;BME280;39844;52.496;13.482;2022-08-19T09:54:18;100719.75;;;24.48;76.05
53932;BME280;39844;52.496;13.482;2022-08-19T09:56:45;100719.88;;;24.47;77.33
53932;BME280;39844;52.496;13.482;2022-08-19T09:59:11;100721.78;;;24.45;77.64
53932;BME280;39844;52.496;13.482;2022-08-19T10:01:37;100718.81;;;24.49;77.58
53932;BME280;39844;52.496;13.482;2022-08-19T10:04:04;100718.53;;;24.54;77.38
53932;BME280;39844;52.496;13.482;2022-08-19T10:06:38;100710.28;;;24.57;76.83
53932;BME280;39844;52.496;13.482;2022-08-19T10:09:08;100715.84;;;24.54;76.96
53932;BME280;39844;52.496;13.482;2022-08-19T10:11:40;100712.75;;;24.46;76.62
53932;BME280;39844;52.496;13.482;2022-08-19T10:14:09;100721.97;;;24.42;77.10
53932;BME280;39844;52.496;13.482;2022-08-19T10:16:36;100718.88;;;24.34;77.22
53932;BME280;39844;52.496;13.482;2022-08-19T10:19:02;100714.75;;;24.28;77.64
53932;BME280;39844;52.496;13.482;2022-08-19T10:21:31;100711.13;;;24.29;77.76
53932;BME280;39844;52.496;13.482;2022-08-19T10:24:00;100706.44;;;24.33;78.37
53932;BME280;39844;52.496;13.482;2022-08-19T10:26:32;100713.16;;;24.40;77.63
53932;BME280;39844;52.496;13.482;2022-08-19T10:29:00;100703.78;;;24.47;77.82
53932;BME280;39844;52.496;13.482;2022-08-19T10:31:30;100701.06;;;24.61;77.23
53932;BME280;39844;52.496;13.482;2022-08-19T10:34:00;100698.41;;;24.75;77.23
53932;BME280;39844;52.496;13.482;2022-08-19T10:36:32;100691.63;;;24.98;76.58
53932;BME280;39844;52.496;13.482;2022-08-19T10:39:08;100685.81;;;25.18;75.40
53932;BME280;39844;52.496;13.482;2022-08-19T10:41:36;100700.88;;;25.21;73.82
53932;BME280;39844;52.496;13.482;2022-08-19T10:44:06;100693.69;;;25.21;74.42
53932;BME280;39844;52.496;13.482;2022-08-19T10:46:34;100700.00;;;25.20;73.70
53932;BME280;39844;52.496;13.482;2022-08-19T10:49:04;100700.91;;;25.06;74.04
53932;BME280;39844;52.496;13.482;2022-08-19T10:51:31;100706.66;;;25.00;75.91
53932;BME280;39844;52.496;13.482;2022-08-19T10:54:18;100700.91;;;24.92;75.40
53932;BME280;39844;52.496;13.482;2022-08-19T10:56:44;100694.09;;;24.87;75.71
53932;BME280;39844;52.496;13.482;2022-08-19T10:59:27;100705.53;;;24.76;75.53
53932;BME280;39844;52.496;13.482;2022-08-19T11:02:00;100702.63;;;24.65;76.40
53932;BME280;39844;52.496;13.482;2022-08-19T11:04:29;100704.06;;;24.57;76.97
53932;BME280;39844;52.496;13.482;2022-08-19T11:06:57;100709.91;;;24.49;77.10
53932;BME280;39844;52.496;13.482;2022-08-19T11:09:25;100717.38;;;24.44;77.96
53932;BME280;39844;52.496;13.482;2022-08-19T11:11:53;100721.22;;;24.40;77.35
53932;BME280;39844;52.496;13.482;2022-08-19T11:14:20;100724.25;;;24.34;78.13
53932;BME280;39844;52.496;13.482;2022-08-19T11:16:50;100715.44;;;24.32;79.05
53932;BME280;39844;52.496;13.482;2022-08-19T11:19:21;100719.34;;;24.26;78.99
53932;BME280;39844;52.496;13.482;2022-08-19T11:21:49;100726.34;;;24.15;79.20
53932;BME280;39844;52.496;13.482;2022-08-19T11:24:21;100723.84;;;24.12;80.94
53932;BME280;39844;52.496;13.482;2022-08-19T11:26:49;100727.63;;;24.08;80.30
53932;BME280;39844;52.496;13.482;2022-08-19T11:29:16;100722.34;;;24.06;80.29
53932;BME280;39844;52.496;13.482;2022-08-19T11:31:44;100729.91;;;24.00;79.77
53932;BME280;39844;52.496;13.482;2022-08-19T11:34:13;100726.41;;;23.98;80.17
53932;BME280;39844;52.496;13.482;2022-08-19T11:36:43;100725.31;;;24.02;79.78
53932;BME280;39844;52.496;13.482;2022-08-19T11:39:11;100733.88;;;24.08;80.78
53932;BME280;39844;52.496;13.482;2022-08-19T11:41:37;100720.59;;;24.21;79.28
53932;BME280;39844;52.496;13.482;2022-08-19T11:44:03;100722.72;;;24.30;79.12
53932;BME280;39844;52.496;13.482;2022-08-19T11:46:30;100731.53;;;24.32;77.96
53932;BME280;39844;52.496;13.482;2022-08-19T11:48:59;100731.72;;;24.29;78.72
53932;BME280;39844;52.496;13.482;2022-08-19T11:51:26;100736.03;;;24.31;78.72
53932;BME280;39844;52.496;13.482;2022-08-19T11:53:53;100735.84;;;24.34;78.75
53932;BME280;39844;52.496;13.482;2022-08-19T11:56:19;100736.91;;;24.46;78.21
53932;BME280;39844;52.496;13.482;2022-08-19T11:58:45;100753.25;;;24.57;77.54
53932;BME280;39844;52.496;13.482;2022-08-19T12:01:12;100748.56;;;24.61;76.29
53932;BME280;39844;52.496;13.482;2022-08-19T12:03:40;100751.81;;;24.66;75.51
53932;BME280;39844;52.496;13.482;2022-08-19T12:06:11;100752.69;;;24.66;75.33
53932;BME280;39844;52.496;13.482;2022-08-19T12:08:38;100752.09;;;24.61;75.47
53932;BME280;39844;52.496;13.482;2022-08-19T12:11:04;100757.47;;;24.61;75.48
53932;BME280;39844;52.496;13.482;2022-08-19T12:13:33;100759.97;;;24.64;75.76
53932;BME280;39844;52.496;13.482;2022-08-19T12:15:59;100757.50;;;24.75;75.87
53932;BME280;39844;52.496;13.482;2022-08-19T12:18:24;100750.72;;;24.84;74.87
53932;BME280;39844;52.496;13.482;2022-08-19T12:20:51;100756.56;;;24.90;74.00
53932;BME280;39844;52.496;13.482;2022-08-19T12:23:17;100763.88;;;24.88;73.65
53932;BME280;39844;52.496;13.482;2022-08-19T12:25:48;100760.50;;;24.85;74.10
53932;BME280;39844;52.496;13.482;2022-08-19T12:28:19;100769.59;;;24.82;75.31
53932;BME280;39844;52.496;13.482;2022-08-19T12:30:46;100773.06;;;24.84;74.27
53932;BME280;39844;52.496;13.482;2022-08-19T12:33:12;100774.97;;;24.82;74.39
53932;BME280;39844;52.496;13.482;2022-08-19T12:35:42;100764.22;;;24.82;73.82
53932;BME280;39844;52.496;13.482;2022-08-19T12:38:09;100760.94;;;24.77;73.23
53932;BME280;39844;52.496;13.482;2022-08-19T12:40:34;100767.22;;;24.78;73.87
53932;BME280;39844;52.496;13.482;2022-08-19T12:43:00;100770.03;;;24.75;74.37